sensor_id;sensor_type;location;lat;lon;timestamp;temperature;humidity
33955;DHT22;20233;50.804;7.126;2023-04-06T00:00:24;4.10;99.90
33955;DHT22;20233;50.804;7.126;2023-04-06T00:02:51;4.10;99.90
33955;DHT22;20233;50.804;7.126;2023-04-06T00:05:18;4.00;99.90
33955;DHT22;20233;50.804;7.126;2023-04-06T00:07:46;4.00;99.90
33955;DHT22;20233;50.804;7.126;2023-04-06T00:10:13;4.00;99.90
33955;DHT22;20233;50.804;7.126;2023-04-06T00:12:40;4.00;99.90
33955;DHT22;20233;50.804;7.126;2023-04-06T00:15:07;3.90;99.90
33955;DHT22;20233;50.804;7.126;2023-04-06T00:17:34;4.00;99.90
33955;DHT22;20233;50.804;7.126;2023-04-06T00:20:01;4.00;99.90
33955;DHT22;20233;50.804;7.126;2023-04-06T00:22:28;3.90;99.90
33955;DHT22;20233;50.804;7.126;2023-04-06T00:24:55;3.80;99.90
33955;DHT22;20233;50.804;7.126;2023-04-06T00:27:22;3.80;99.90
33955;DHT22;20233;50.804;7.126;2023-04-06T00:29:48;3.80;99.90
33955;DHT22;20233;50.804;7.126;2023-04-06T00:32:14;3.70;99.90
33955;DHT22;20233;50.804;7.126;2023-04-06T00:34:41;3.70;99.90
33955;DHT22;20233;50.804;7.126;2023-04-06T00:37:07;3.70;99.90
33955;DHT22;20233;50.804;7.126;2023-04-06T00:39:34;3.60;99.90
33955;DHT22;20233;50.804;7.126;2023-04-06T00:42:03;3.60;99.90
33955;DHT22;20233;50.804;7.126;2023-04-06T00:44:33;3.60;99.90
33955;DHT22;20233;50.804;7.126;2023-04-06T00:46:59;3.50;99.90
33955;DHT22;20233;50.804;7.126;2023-04-06T00:49:26;3.50;99.90
33955;DHT22;20233;50.804;7.126;2023-04-06T00:51:53;3.50;99.90
33955;DHT22;20233;50.804;7.126;2023-04-06T00:54:19;3.50;99.90
33955;DHT22;20233;50.804;7.126;2023-04-06T00:56:45;3.40;99.90
33955;DHT22;20233;50.804;7.126;2023-04-06T00:59:12;3.40;99.90
33955;DHT22;20233;50.804;7.126;2023-04-06T01:01:38;3.30;99.90
33955;DHT22;20233;50.804;7.126;2023-04-06T01:04:04;3.30;99.90
33955;DHT22;20233;50.804;7.126;2023-04-06T01:06:31;3.30;99.90
33955;DHT22;20233;50.804;7.126;2023-04-06T01:08:58;3.30;99.90
33955;DHT22;20233;50.804;7.126;2023-04-06T01:11:25;3.20;99.90
33955;DHT22;20233;50.804;7.126;2023-04-06T01:13:53;3.20;99.90
33955;DHT22;20233;50.804;7.126;2023-04-06T01:16:20;3.20;99.90
33955;DHT22;20233;50.804;7.126;2023-04-06T01:18:46;3.20;99.90
33955;DHT22;20233;50.804;7.126;2023-04-06T01:21:12;3.20;99.90
33955;DHT22;20233;50.804;7.126;2023-04-06T01:23:45;3.20;99.90
33955;DHT22;20233;50.804;7.126;2023-04-06T01:26:12;3.20;99.90
33955;DHT22;20233;50.804;7.126;2023-04-06T01:28:39;3.20;99.90
33955;DHT22;20233;50.804;7.126;2023-04-06T01:31:06;3.20;99.90
33955;DHT22;20233;50.804;7.126;2023-04-06T01:33:33;3.20;99.90
33955;DHT22;20233;50.804;7.126;2023-04-06T01:36:00;3.10;99.90
33955;DHT22;20233;50.804;7.126;2023-04-06T01:38:28;3.20;99.90
33955;DHT22;20233;50.804;7.126;2023-04-06T01:40:55;3.10;99.90
33955;DHT22;20233;50.804;7.126;2023-04-06T01:43:21;3.10;99.90
33955;DHT22;20233;50.804;7.126;2023-04-06T01:45:48;3.10;99.90
33955;DHT22;20233;50.804;7.126;2023-04-06T01:48:15;3.10;99.90
33955;DHT22;20233;50.804;7.126;2023-04-06T01:50:41;3.10;99.90
33955;DHT22;20233;50.804;7.126;2023-04-06T01:53:07;3.10;99.90
33955;DHT22;20233;50.804;7.126;2023-04-06T01:55:34;3.10;99.90
33955;DHT22;20233;50.804;7.126;2023-04-06T01:58:00;3.00;99.90
33955;DHT22;20233;50.804;7.126;2023-04-06T02:00:27;3.00;99.90
33955;DHT22;20233;50.804;7.126;2023-04-06T02:02:54;3.00;99.90
33955;DHT22;20233;50.804;7.126;2023-04-06T02:05:21;3.00;99.90
33955;DHT22;20233;50.804;7.126;2023-04-06T02:07:47;3.00;99.90
33955;DHT22;20233;50.804;7.126;2023-04-06T02:10:15;3.00;99.90
33955;DHT22;20233;50.804;7.126;2023-04-06T02:12:41;3.00;99.90
33955;DHT22;20233;50.804;7.126;2023-04-06T02:15:08;3.00;99.90
33955;DHT22;20233;50.804;7.126;2023-04-06T02:17:35;3.00;99.90
33955;DHT22;20233;50.804;7.126;2023-04-06T02:20:02;3.00;99.90
33955;DHT22;20233;50.804;7.126;2023-04-06T02:22:28;3.00;99.90
33955;DHT22;20233;50.804;7.126;2023-04-06T02:24:55;2.90;99.90
33955;DHT22;20233;50.804;7.126;2023-04-06T02:27:22;2.90;99.90
33955;DHT22;20233;50.804;7.126;2023-04-06T02:29:49;3.00;99.90
33955;DHT22;20233;50.804;7.126;2023-04-06T02:32:16;2.90;99.90
33955;DHT22;20233;50.804;7.126;2023-04-06T02:34:43;2.90;99.90
33955;DHT22;20233;50.804;7.126;2023-04-06T02:37:09;2.90;99.90
33955;DHT22;20233;50.804;7.126;2023-04-06T02:39:36;2.90;99.90
33955;DHT22;20233;50.804;7.126;2023-04-06T02:42:06;2.90;99.90
33955;DHT22;20233;50.804;7.126;2023-04-06T02:44:32;2.80;99.90
33955;DHT22;20233;50.804;7.126;2023-04-06T02:46:58;2.80;99.90
33955;DHT22;20233;50.804;7.126;2023-04-06T02:49:25;2.80;99.90
33955;DHT22;20233;50.804;7.126;2023-04-06T02:51:52;2.70;99.90
33955;DHT22;20233;50.804;7.126;2023-04-06T02:54:19;2.70;99.90
33955;DHT22;20233;50.804;7.126;2023-04-06T02:56:45;2.70;99.90
33955;DHT22;20233;50.804;7.126;2023-04-06T02:59:11;2.70;99.90
33955;DHT22;20233;50.804;7.126;2023-04-06T03:01:37;2.70;99.90
33955;DHT22;20233;50.804;7.126;2023-04-06T03:04:04;2.60;99.90
33955;DHT22;20233;50.804;7.126;2023-04-06T03:06:31;2.60;99.90
33955;DHT22;20233;50.804;7.126;2023-04-06T03:08:57;2.50;99.90
33955;DHT22;20233;50.804;7.126;2023-04-06T03:11:24;2.50;99.90
33955;DHT22;20233;50.804;7.126;2023-04-06T03:13:52;2.50;99.90
33955;DHT22;20233;50.804;7.126;2023-04-06T03:16:19;2.50;99.90
33955;DHT22;20233;50.804;7.126;2023-04-06T03:18:46;2.50;99.90
33955;DHT22;20233;50.804;7.126;2023-04-06T03:21:13;2.50;99.90
33955;DHT22;20233;50.804;7.126;2023-04-06T03:23:46;2.50;99.90
33955;DHT22;20233;50.804;7.126;2023-04-06T03:26:14;2.50;99.90
33955;DHT22;20233;50.804;7.126;2023-04-06T03:28:40;2.50;99.90
33955;DHT22;20233;50.804;7.126;2023-04-06T03:31:06;2.40;99.90
33955;DHT22;20233;50.804;7.126;2023-04-06T03:33:33;2.40;99.90
33955;DHT22;20233;50.804;7.126;2023-04-06T03:36:00;2.40;99.90
33955;DHT22;20233;50.804;7.126;2023-04-06T03:38:28;2.40;99.90
33955;DHT22;20233;50.804;7.126;2023-04-06T03:40:55;2.50;99.90
33955;DHT22;20233;50.804;7.126;2023-04-06T03:43:22;2.40;99.90
33955;DHT22;20233;50.804;7.126;2023-04-06T03:45:48;2.50;99.90
33955;DHT22;20233;50.804;7.126;2023-04-06T03:48:14;2.50;99.90
33955;DHT22;20233;50.804;7.126;2023-04-06T03:50:41;2.50;99.90
33955;DHT22;20233;50.804;7.126;2023-04-06T03:53:07;2.50;99.90
33955;DHT22;20233;50.804;7.126;2023-04-06T03:55:34;2.50;99.90
33955;DHT22;20233;50.804;7.126;2023-04-06T03:58:01;2.50;99.90
33955;DHT22;20233;50.804;7.126;2023-04-06T04:00:28;2.50;99.90
33955;DHT22;20233;50.804;7.126;2023-04-06T04:02:56;2.50;99.90
33955;DHT22;20233;50.804;7.126;2023-04-06T04:05:23;2.50;99.90
33955;DHT22;20233;50.804;7.126;2023-04-06T04:07:54;2.50;99.90
33955;DHT22;20233;50.804;7.126;2023-04-06T04:10:21;2.40;99.90
33955;DHT22;20233;50.804;7.126;2023-04-06T04:12:49;2.40;99.90
33955;DHT22;20233;50.804;7.126;2023-04-06T04:15:22;2.40;99.90
33955;DHT22;20233;50.804;7.126;2023-04-06T04:17:49;2.30;99.90
33955;DHT22;20233;50.804;7.126;2023-04-06T04:20:16;2.30;99.90
33955;DHT22;20233;50.804;7.126;2023-04-06T04:22:43;2.40;99.90
33955;DHT22;20233;50.804;7.126;2023-04-06T04:25:10;2.40;99.90
33955;DHT22;20233;50.804;7.126;2023-04-06T04:27:36;2.40;99.90
33955;DHT22;20233;50.804;7.126;2023-04-06T04:30:03;2.40;99.90
33955;DHT22;20233;50.804;7.126;2023-04-06T04:32:29;2.40;99.90
33955;DHT22;20233;50.804;7.126;2023-04-06T04:34:56;2.40;99.90
33955;DHT22;20233;50.804;7.126;2023-04-06T04:37:23;2.30;99.90
33955;DHT22;20233;50.804;7.126;2023-04-06T04:39:51;2.30;99.90
33955;DHT22;20233;50.804;7.126;2023-04-06T04:42:18;2.30;99.90
33955;DHT22;20233;50.804;7.126;2023-04-06T04:44:44;2.30;99.90
33955;DHT22;20233;50.804;7.126;2023-04-06T04:47:10;2.30;99.90
33955;DHT22;20233;50.804;7.126;2023-04-06T04:49:42;2.20;99.90
33955;DHT22;20233;50.804;7.126;2023-04-06T04:52:08;2.10;99.90
33955;DHT22;20233;50.804;7.126;2023-04-06T04:54:34;2.20;99.90
33955;DHT22;20233;50.804;7.126;2023-04-06T04:57:01;2.20;99.90
33955;DHT22;20233;50.804;7.126;2023-04-06T04:59:28;2.20;99.90
33955;DHT22;20233;50.804;7.126;2023-04-06T05:01:55;2.10;99.90
33955;DHT22;20233;50.804;7.126;2023-04-06T05:04:22;2.20;99.90
33955;DHT22;20233;50.804;7.126;2023-04-06T05:06:49;2.20;99.90
33955;DHT22;20233;50.804;7.126;2023-04-06T05:09:16;2.20;99.90
33955;DHT22;20233;50.804;7.126;2023-04-06T05:11:43;2.20;99.90
33955;DHT22;20233;50.804;7.126;2023-04-06T05:14:10;2.20;99.90
33955;DHT22;20233;50.804;7.126;2023-04-06T05:16:36;2.20;99.90
33955;DHT22;20233;50.804;7.126;2023-04-06T05:19:02;2.20;99.90
33955;DHT22;20233;50.804;7.126;2023-04-06T05:21:29;2.10;99.90
33955;DHT22;20233;50.804;7.126;2023-04-06T05:23:56;2.10;99.90
33955;DHT22;20233;50.804;7.126;2023-04-06T05:26:23;2.20;99.90
33955;DHT22;20233;50.804;7.126;2023-04-06T05:28:50;2.20;99.90
33955;DHT22;20233;50.804;7.126;2023-04-06T05:31:17;2.20;99.90
33955;DHT22;20233;50.804;7.126;2023-04-06T05:33:43;2.20;99.90
33955;DHT22;20233;50.804;7.126;2023-04-06T05:36:11;2.20;99.90
33955;DHT22;20233;50.804;7.126;2023-04-06T05:38:38;2.20;99.90
33955;DHT22;20233;50.804;7.126;2023-04-06T05:41:04;2.30;99.90
33955;DHT22;20233;50.804;7.126;2023-04-06T05:43:32;2.30;99.90
33955;DHT22;20233;50.804;7.126;2023-04-06T05:46:00;2.30;99.90
33955;DHT22;20233;50.804;7.126;2023-04-06T05:48:27;2.40;99.90
33955;DHT22;20233;50.804;7.126;2023-04-06T05:50:55;2.40;99.90
33955;DHT22;20233;50.804;7.126;2023-04-06T05:53:23;2.50;99.90
33955;DHT22;20233;50.804;7.126;2023-04-06T05:55:52;2.50;99.90
33955;DHT22;20233;50.804;7.126;2023-04-06T05:58:20;2.60;99.90
33955;DHT22;20233;50.804;7.126;2023-04-06T06:00:47;2.60;99.90
33955;DHT22;20233;50.804;7.126;2023-04-06T06:03:14;2.60;99.90
33955;DHT22;20233;50.804;7.126;2023-04-06T06:05:43;2.60;99.90
33955;DHT22;20233;50.804;7.126;2023-04-06T06:08:11;2.70;99.90
33955;DHT22;20233;50.804;7.126;2023-04-06T06:10:38;2.70;99.90
33955;DHT22;20233;50.804;7.126;2023-04-06T06:13:05;2.70;99.90
33955;DHT22;20233;50.804;7.126;2023-04-06T06:15:33;2.80;99.90
33955;DHT22;20233;50.804;7.126;2023-04-06T06:18:01;2.90;99.90
33955;DHT22;20233;50.804;7.126;2023-04-06T06:20:27;3.00;99.90
33955;DHT22;20233;50.804;7.126;2023-04-06T06:22:55;3.00;99.90
33955;DHT22;20233;50.804;7.126;2023-04-06T06:25:23;3.00;99.90
33955;DHT22;20233;50.804;7.126;2023-04-06T06:27:50;3.00;99.90
33955;DHT22;20233;50.804;7.126;2023-04-06T06:30:17;3.10;99.90
33955;DHT22;20233;50.804;7.126;2023-04-06T06:32:43;3.20;99.90
33955;DHT22;20233;50.804;7.126;2023-04-06T06:35:09;3.30;99.90
33955;DHT22;20233;50.804;7.126;2023-04-06T06:37:35;3.40;99.90
33955;DHT22;20233;50.804;7.126;2023-04-06T06:40:02;3.40;99.90
33955;DHT22;20233;50.804;7.126;2023-04-06T06:42:28;3.50;99.90
33955;DHT22;20233;50.804;7.126;2023-04-06T06:44:54;3.70;99.90
33955;DHT22;20233;50.804;7.126;2023-04-06T06:47:21;3.70;99.90
33955;DHT22;20233;50.804;7.126;2023-04-06T06:49:47;3.80;99.90
33955;DHT22;20233;50.804;7.126;2023-04-06T06:52:14;3.80;99.90
33955;DHT22;20233;50.804;7.126;2023-04-06T06:54:40;3.90;99.90
33955;DHT22;20233;50.804;7.126;2023-04-06T06:57:08;4.00;99.90
33955;DHT22;20233;50.804;7.126;2023-04-06T06:59:35;4.00;99.90
33955;DHT22;20233;50.804;7.126;2023-04-06T07:02:03;4.20;99.90
33955;DHT22;20233;50.804;7.126;2023-04-06T07:04:32;4.30;99.90
33955;DHT22;20233;50.804;7.126;2023-04-06T07:06:59;4.30;99.90
33955;DHT22;20233;50.804;7.126;2023-04-06T07:09:28;4.40;99.90
33955;DHT22;20233;50.804;7.126;2023-04-06T07:11:55;4.40;99.90
33955;DHT22;20233;50.804;7.126;2023-04-06T07:14:22;4.50;99.90
33955;DHT22;20233;50.804;7.126;2023-04-06T07:16:49;4.60;99.90
33955;DHT22;20233;50.804;7.126;2023-04-06T07:19:16;4.70;99.90
33955;DHT22;20233;50.804;7.126;2023-04-06T07:21:42;4.80;99.90
33955;DHT22;20233;50.804;7.126;2023-04-06T07:24:09;4.90;99.90
33955;DHT22;20233;50.804;7.126;2023-04-06T07:26:35;4.90;99.90
33955;DHT22;20233;50.804;7.126;2023-04-06T07:29:03;5.00;99.90
33955;DHT22;20233;50.804;7.126;2023-04-06T07:31:31;5.10;99.90
33955;DHT22;20233;50.804;7.126;2023-04-06T07:33:58;5.20;99.90
33955;DHT22;20233;50.804;7.126;2023-04-06T07:36:24;5.30;99.90
33955;DHT22;20233;50.804;7.126;2023-04-06T07:38:51;5.60;99.90
33955;DHT22;20233;50.804;7.126;2023-04-06T07:41:17;5.60;99.90
33955;DHT22;20233;50.804;7.126;2023-04-06T07:43:44;5.60;99.90
33955;DHT22;20233;50.804;7.126;2023-04-06T07:46:11;5.80;99.90
33955;DHT22;20233;50.804;7.126;2023-04-06T07:48:40;5.90;99.90
33955;DHT22;20233;50.804;7.126;2023-04-06T07:51:07;6.00;99.90
33955;DHT22;20233;50.804;7.126;2023-04-06T07:53:40;6.10;99.90
33955;DHT22;20233;50.804;7.126;2023-04-06T07:56:10;6.20;99.90
33955;DHT22;20233;50.804;7.126;2023-04-06T07:58:45;6.30;99.90
33955;DHT22;20233;50.804;7.126;2023-04-06T08:01:12;6.50;99.90
33955;DHT22;20233;50.804;7.126;2023-04-06T08:03:39;6.60;99.90
33955;DHT22;20233;50.804;7.126;2023-04-06T08:06:06;6.70;99.90
33955;DHT22;20233;50.804;7.126;2023-04-06T08:08:33;6.90;99.90
33955;DHT22;20233;50.804;7.126;2023-04-06T08:11:00;7.00;99.90
33955;DHT22;20233;50.804;7.126;2023-04-06T08:13:29;7.20;99.90
33955;DHT22;20233;50.804;7.126;2023-04-06T08:15:58;7.60;99.90
33955;DHT22;20233;50.804;7.126;2023-04-06T08:18:26;7.70;99.90
33955;DHT22;20233;50.804;7.126;2023-04-06T08:20:55;7.90;99.90
33955;DHT22;20233;50.804;7.126;2023-04-06T08:23:24;8.10;99.90
33955;DHT22;20233;50.804;7.126;2023-04-06T08:25:51;8.10;99.90
33955;DHT22;20233;50.804;7.126;2023-04-06T08:28:20;8.20;99.90
33955;DHT22;20233;50.804;7.126;2023-04-06T08:30:47;8.30;99.90
33955;DHT22;20233;50.804;7.126;2023-04-06T08:33:13;8.40;99.90
33955;DHT22;20233;50.804;7.126;2023-04-06T08:35:39;8.60;99.90
33955;DHT22;20233;50.804;7.126;2023-04-06T08:38:04;8.80;99.90
33955;DHT22;20233;50.804;7.126;2023-04-06T08:40:39;8.90;99.90
33955;DHT22;20233;50.804;7.126;2023-04-06T08:43:13;9.00;99.90
33955;DHT22;20233;50.804;7.126;2023-04-06T08:45:40;9.10;99.90
33955;DHT22;20233;50.804;7.126;2023-04-06T08:48:09;9.20;99.90
33955;DHT22;20233;50.804;7.126;2023-04-06T08:50:38;9.30;99.90
33955;DHT22;20233;50.804;7.126;2023-04-06T08:53:06;9.40;99.90
33955;DHT22;20233;50.804;7.126;2023-04-06T08:55:35;9.50;99.90
33955;DHT22;20233;50.804;7.126;2023-04-06T08:58:02;9.60;99.90
33955;DHT22;20233;50.804;7.126;2023-04-06T09:00:30;9.80;99.90
33955;DHT22;20233;50.804;7.126;2023-04-06T09:02:59;9.90;99.90
33955;DHT22;20233;50.804;7.126;2023-04-06T09:05:26;10.00;99.90
33955;DHT22;20233;50.804;7.126;2023-04-06T09:07:55;10.20;99.90
33955;DHT22;20233;50.804;7.126;2023-04-06T09:10:22;10.20;99.90
33955;DHT22;20233;50.804;7.126;2023-04-06T09:12:51;10.30;99.90
33955;DHT22;20233;50.804;7.126;2023-04-06T09:15:19;10.40;99.90
33955;DHT22;20233;50.804;7.126;2023-04-06T09:17:47;10.50;99.90
33955;DHT22;20233;50.804;7.126;2023-04-06T09:20:13;10.70;99.90
33955;DHT22;20233;50.804;7.126;2023-04-06T09:22:40;10.80;99.90
33955;DHT22;20233;50.804;7.126;2023-04-06T09:25:09;10.90;99.90
33955;DHT22;20233;50.804;7.126;2023-04-06T09:27:38;11.00;99.90
33955;DHT22;20233;50.804;7.126;2023-04-06T09:30:04;11.20;99.90
33955;DHT22;20233;50.804;7.126;2023-04-06T09:32:31;11.40;99.90
33955;DHT22;20233;50.804;7.126;2023-04-06T09:35:08;11.50;99.90
33955;DHT22;20233;50.804;7.126;2023-04-06T09:37:36;11.60;99.90
33955;DHT22;20233;50.804;7.126;2023-04-06T09:40:06;11.90;99.90
33955;DHT22;20233;50.804;7.126;2023-04-06T09:42:34;12.00;99.90
33955;DHT22;20233;50.804;7.126;2023-04-06T09:45:03;12.10;99.90
33955;DHT22;20233;50.804;7.126;2023-04-06T09:47:32;12.20;99.90
33955;DHT22;20233;50.804;7.126;2023-04-06T09:50:01;12.30;99.90
33955;DHT22;20233;50.804;7.126;2023-04-06T09:52:36;12.50;99.90
33955;DHT22;20233;50.804;7.126;2023-04-06T09:55:05;12.60;99.90
33955;DHT22;20233;50.804;7.126;2023-04-06T09:58:06;12.70;99.90
33955;DHT22;20233;50.804;7.126;2023-04-06T10:00:44;13.00;99.90
33955;DHT22;20233;50.804;7.126;2023-04-06T10:05:55;13.30;99.90
33955;DHT22;20233;50.804;7.126;2023-04-06T10:08:29;13.50;99.90
33955;DHT22;20233;50.804;7.126;2023-04-06T10:10:58;13.50;99.90
33955;DHT22;20233;50.804;7.126;2023-04-06T10:13:27;13.40;99.90
33955;DHT22;20233;50.804;7.126;2023-04-06T10:15:54;13.50;99.90
33955;DHT22;20233;50.804;7.126;2023-04-06T10:18:22;13.60;99.90
33955;DHT22;20233;50.804;7.126;2023-04-06T10:21:11;13.80;99.90
33955;DHT22;20233;50.804;7.126;2023-04-06T10:23:52;13.80;99.90
33955;DHT22;20233;50.804;7.126;2023-04-06T10:26:21;14.00;99.90
33955;DHT22;20233;50.804;7.126;2023-04-06T10:28:49;14.00;99.90
33955;DHT22;20233;50.804;7.126;2023-04-06T10:31:27;13.90;99.90
33955;DHT22;20233;50.804;7.126;2023-04-06T10:33:59;14.00;99.90
33955;DHT22;20233;50.804;7.126;2023-04-06T10:36:36;14.00;99.90
33955;DHT22;20233;50.804;7.126;2023-04-06T10:41:43;14.40;99.90
33955;DHT22;20233;50.804;7.126;2023-04-06T10:44:25;14.50;99.90
33955;DHT22;20233;50.804;7.126;2023-04-06T10:47:00;14.40;99.90
33955;DHT22;20233;50.804;7.126;2023-04-06T10:49:26;14.30;99.90
33955;DHT22;20233;50.804;7.126;2023-04-06T10:51:55;14.30;99.90
33955;DHT22;20233;50.804;7.126;2023-04-06T10:54:25;14.60;99.90
33955;DHT22;20233;50.804;7.126;2023-04-06T10:56:52;14.60;99.90
33955;DHT22;20233;50.804;7.126;2023-04-06T10:59:20;14.60;99.90
33955;DHT22;20233;50.804;7.126;2023-04-06T11:01:47;14.60;99.90
33955;DHT22;20233;50.804;7.126;2023-04-06T11:04:17;14.50;99.90
33955;DHT22;20233;50.804;7.126;2023-04-06T11:06:50;14.50;99.90
33955;DHT22;20233;50.804;7.126;2023-04-06T11:09:25;14.60;99.90
33955;DHT22;20233;50.804;7.126;2023-04-06T11:11:53;14.60;99.90
33955;DHT22;20233;50.804;7.126;2023-04-06T11:16:48;14.70;99.90
33955;DHT22;20233;50.804;7.126;2023-04-06T11:19:16;14.70;99.90
33955;DHT22;20233;50.804;7.126;2023-04-06T11:21:46;14.80;99.90
33955;DHT22;20233;50.804;7.126;2023-04-06T11:26:57;14.80;99.90
33955;DHT22;20233;50.804;7.126;2023-04-06T11:29:27;14.80;99.90
33955;DHT22;20233;50.804;7.126;2023-04-06T11:32:00;14.70;99.90
33955;DHT22;20233;50.804;7.126;2023-04-06T11:34:35;14.70;99.90
33955;DHT22;20233;50.804;7.126;2023-04-06T11:37:06;14.70;99.90
33955;DHT22;20233;50.804;7.126;2023-04-06T11:39:39;14.80;99.90
33955;DHT22;20233;50.804;7.126;2023-04-06T11:42:06;14.80;99.90
33955;DHT22;20233;50.804;7.126;2023-04-06T11:44:39;14.70;99.90
33955;DHT22;20233;50.804;7.126;2023-04-06T11:47:07;14.90;99.90
33955;DHT22;20233;50.804;7.126;2023-04-06T11:49:41;15.00;99.90
33955;DHT22;20233;50.804;7.126;2023-04-06T11:52:28;15.00;99.90
33955;DHT22;20233;50.804;7.126;2023-04-06T11:54:56;15.00;99.90
33955;DHT22;20233;50.804;7.126;2023-04-06T11:57:23;15.00;99.90
33955;DHT22;20233;50.804;7.126;2023-04-06T11:59:56;15.00;99.90
33955;DHT22;20233;50.804;7.126;2023-04-06T12:02:23;14.90;99.90
33955;DHT22;20233;50.804;7.126;2023-04-06T12:04:50;15.00;99.90
33955;DHT22;20233;50.804;7.126;2023-04-06T12:07:16;14.90;99.90
33955;DHT22;20233;50.804;7.126;2023-04-06T12:09:43;14.90;99.90
33955;DHT22;20233;50.804;7.126;2023-04-06T12:12:11;14.90;99.90
33955;DHT22;20233;50.804;7.126;2023-04-06T12:14:37;15.00;99.90
33955;DHT22;20233;50.804;7.126;2023-04-06T12:19:29;15.30;99.90
33955;DHT22;20233;50.804;7.126;2023-04-06T12:21:55;15.20;99.90
33955;DHT22;20233;50.804;7.126;2023-04-06T12:24:24;15.40;99.90
33955;DHT22;20233;50.804;7.126;2023-04-06T12:26:50;15.40;99.90
33955;DHT22;20233;50.804;7.126;2023-04-06T12:29:16;15.50;99.90
33955;DHT22;20233;50.804;7.126;2023-04-06T12:31:42;15.50;99.90
33955;DHT22;20233;50.804;7.126;2023-04-06T12:36:37;15.60;99.90
33955;DHT22;20233;50.804;7.126;2023-04-06T12:39:03;15.50;99.90
33955;DHT22;20233;50.804;7.126;2023-04-06T12:41:28;15.40;99.90
33955;DHT22;20233;50.804;7.126;2023-04-06T12:43:55;15.20;99.90
33955;DHT22;20233;50.804;7.126;2023-04-06T12:46:24;15.30;99.90
33955;DHT22;20233;50.804;7.126;2023-04-06T12:48:52;15.40;99.90
33955;DHT22;20233;50.804;7.126;2023-04-06T12:51:22;15.50;99.90
33955;DHT22;20233;50.804;7.126;2023-04-06T12:53:48;15.50;99.90
33955;DHT22;20233;50.804;7.126;2023-04-06T12:56:18;15.40;99.90
33955;DHT22;20233;50.804;7.126;2023-04-06T12:58:44;15.30;99.90
33955;DHT22;20233;50.804;7.126;2023-04-06T13:01:10;15.30;99.90
33955;DHT22;20233;50.804;7.126;2023-04-06T13:03:40;15.40;99.90
33955;DHT22;20233;50.804;7.126;2023-04-06T13:06:06;15.40;99.90
33955;DHT22;20233;50.804;7.126;2023-04-06T13:08:35;15.50;99.90
33955;DHT22;20233;50.804;7.126;2023-04-06T13:11:05;15.40;99.90
33955;DHT22;20233;50.804;7.126;2023-04-06T13:13:34;15.30;99.90
33955;DHT22;20233;50.804;7.126;2023-04-06T13:16:03;15.20;99.90
33955;DHT22;20233;50.804;7.126;2023-04-06T13:18:31;15.10;99.90
33955;DHT22;20233;50.804;7.126;2023-04-06T13:20:58;15.10;99.90
33955;DHT22;20233;50.804;7.126;2023-04-06T13:23:30;15.00;99.90
33955;DHT22;20233;50.804;7.126;2023-04-06T13:26:02;15.10;99.90
33955;DHT22;20233;50.804;7.126;2023-04-06T13:28:32;15.00;99.90
33955;DHT22;20233;50.804;7.126;2023-04-06T13:31:00;14.90;99.90
33955;DHT22;20233;50.804;7.126;2023-04-06T13:33:29;15.00;99.90
33955;DHT22;20233;50.804;7.126;2023-04-06T13:35:58;15.00;99.90
33955;DHT22;20233;50.804;7.126;2023-04-06T13:38:27;14.90;99.90
33955;DHT22;20233;50.804;7.126;2023-04-06T13:40:56;14.70;99.90
33955;DHT22;20233;50.804;7.126;2023-04-06T13:43:22;14.70;99.90
33955;DHT22;20233;50.804;7.126;2023-04-06T13:45:51;14.70;99.90
33955;DHT22;20233;50.804;7.126;2023-04-06T13:48:18;14.60;99.90
33955;DHT22;20233;50.804;7.126;2023-04-06T13:50:44;14.60;99.90
33955;DHT22;20233;50.804;7.126;2023-04-06T13:53:11;14.60;99.90
33955;DHT22;20233;50.804;7.126;2023-04-06T13:55:38;14.40;99.90
33955;DHT22;20233;50.804;7.126;2023-04-06T13:58:04;14.10;99.90
33955;DHT22;20233;50.804;7.126;2023-04-06T14:00:31;13.90;99.90
33955;DHT22;20233;50.804;7.126;2023-04-06T14:02:57;13.90;99.90
33955;DHT22;20233;50.804;7.126;2023-04-06T14:05:25;13.80;99.90
33955;DHT22;20233;50.804;7.126;2023-04-06T14:07:53;13.80;99.90
33955;DHT22;20233;50.804;7.126;2023-04-06T14:10:21;13.70;99.90
33955;DHT22;20233;50.804;7.126;2023-04-06T14:12:49;13.60;99.90
33955;DHT22;20233;50.804;7.126;2023-04-06T14:15:16;13.60;99.90
33955;DHT22;20233;50.804;7.126;2023-04-06T14:17:42;13.40;99.90
33955;DHT22;20233;50.804;7.126;2023-04-06T14:20:09;13.30;99.90
33955;DHT22;20233;50.804;7.126;2023-04-06T14:22:43;13.30;99.90
33955;DHT22;20233;50.804;7.126;2023-04-06T14:25:11;13.30;99.90
33955;DHT22;20233;50.804;7.126;2023-04-06T14:27:38;13.20;99.90
33955;DHT22;20233;50.804;7.126;2023-04-06T14:30:07;13.10;99.90
33955;DHT22;20233;50.804;7.126;2023-04-06T14:32:35;13.00;99.90
33955;DHT22;20233;50.804;7.126;2023-04-06T14:35:04;13.10;99.90
33955;DHT22;20233;50.804;7.126;2023-04-06T14:37:32;13.10;99.90
33955;DHT22;20233;50.804;7.126;2023-04-06T14:40:01;13.10;99.90
33955;DHT22;20233;50.804;7.126;2023-04-06T14:42:28;12.90;99.90
33955;DHT22;20233;50.804;7.126;2023-04-06T14:44:54;13.00;99.90
33955;DHT22;20233;50.804;7.126;2023-04-06T14:47:21;13.00;99.90
33955;DHT22;20233;50.804;7.126;2023-04-06T14:49:50;12.90;99.90
33955;DHT22;20233;50.804;7.126;2023-04-06T14:52:16;12.90;99.90
33955;DHT22;20233;50.804;7.126;2023-04-06T14:54:43;12.80;99.90
33955;DHT22;20233;50.804;7.126;2023-04-06T14:57:09;12.70;99.90
33955;DHT22;20233;50.804;7.126;2023-04-06T14:59:36;12.70;99.90
33955;DHT22;20233;50.804;7.126;2023-04-06T15:02:03;12.70;99.90
33955;DHT22;20233;50.804;7.126;2023-04-06T15:04:30;12.80;99.90
33955;DHT22;20233;50.804;7.126;2023-04-06T15:11:49;12.50;99.90
33955;DHT22;20233;50.804;7.126;2023-04-06T15:14:15;12.40;99.90
33955;DHT22;20233;50.804;7.126;2023-04-06T15:16:42;12.30;99.90
33955;DHT22;20233;50.804;7.126;2023-04-06T15:19:08;12.20;99.90
33955;DHT22;20233;50.804;7.126;2023-04-06T15:21:36;12.10;99.90
33955;DHT22;20233;50.804;7.126;2023-04-06T15:24:03;12.10;99.90
33955;DHT22;20233;50.804;7.126;2023-04-06T15:26:32;12.00;99.90
33955;DHT22;20233;50.804;7.126;2023-04-06T15:29:00;11.90;99.90
33955;DHT22;20233;50.804;7.126;2023-04-06T15:31:27;11.90;99.90
33955;DHT22;20233;50.804;7.126;2023-04-06T15:33:55;11.90;99.90
33955;DHT22;20233;50.804;7.126;2023-04-06T15:36:27;11.90;99.90
33955;DHT22;20233;50.804;7.126;2023-04-06T15:38:59;11.90;99.90
33955;DHT22;20233;50.804;7.126;2023-04-06T15:41:26;11.90;99.90
33955;DHT22;20233;50.804;7.126;2023-04-06T15:43:54;11.90;99.90
33955;DHT22;20233;50.804;7.126;2023-04-06T15:46:21;11.80;99.90
33955;DHT22;20233;50.804;7.126;2023-04-06T15:48:48;11.80;99.90
33955;DHT22;20233;50.804;7.126;2023-04-06T15:51:14;11.80;99.90
33955;DHT22;20233;50.804;7.126;2023-04-06T15:53:42;11.80;99.90
33955;DHT22;20233;50.804;7.126;2023-04-06T15:56:08;11.60;99.90
33955;DHT22;20233;50.804;7.126;2023-04-06T15:58:36;11.50;99.90
33955;DHT22;20233;50.804;7.126;2023-04-06T16:03:41;11.30;99.90
33955;DHT22;20233;50.804;7.126;2023-04-06T16:06:08;11.10;99.90